createdAt,value
2022-09-10T00:00:43.135Z,1.83
2022-09-10T00:06:47.171Z,2.15
2022-09-10T00:12:51.494Z,2.38
2022-09-10T00:18:57.308Z,1.60
2022-09-10T00:25:02.337Z,2.70
2022-09-10T00:31:07.499Z,3.20
2022-09-10T00:37:12.899Z,2.72
2022-09-10T00:43:18.796Z,2.80
2022-09-10T00:49:25.502Z,2.78
2022-09-10T00:55:31.696Z,2.35
2022-09-10T01:01:35.512Z,2.15
2022-09-10T01:07:39.175Z,2.75
2022-09-10T01:13:49.590Z,3.20
2022-09-10T01:20:11.050Z,2.90
2022-09-10T01:26:21.207Z,2.67
2022-09-10T01:32:28.785Z,3.60
2022-09-10T01:38:34.264Z,2.50
2022-09-10T01:44:42.726Z,3.55
2022-09-10T01:50:51.453Z,3.03
2022-09-10T01:56:58.513Z,3.38
2022-09-10T02:03:04.100Z,3.63
2022-09-10T02:09:09.568Z,3.50
2022-09-10T02:15:14.055Z,3.85
2022-09-10T02:21:17.849Z,3.05
2022-09-10T02:27:23.621Z,3.78
2022-09-10T02:33:27.324Z,4.22
2022-09-10T02:39:30.779Z,4.70
2022-09-10T02:45:36.659Z,5.78
2022-09-10T02:51:41.802Z,5.63
2022-09-10T02:57:45.430Z,5.53
2022-09-10T03:03:52.313Z,6.85
2022-09-10T03:09:55.649Z,7.10
2022-09-10T03:15:59.344Z,7.22
2022-09-10T03:22:04.309Z,8.35
2022-09-10T03:28:07.713Z,8.15
2022-09-10T03:34:12.642Z,8.25
2022-09-10T03:40:17.729Z,7.75
2022-09-10T03:46:21.069Z,8.32
2022-09-10T03:52:24.506Z,8.10
2022-09-10T03:58:29.469Z,8.23
2022-09-10T04:04:33.992Z,8.68
2022-09-10T04:10:37.779Z,7.68
2022-09-10T04:16:42.703Z,5.90
2022-09-10T04:22:46.436Z,9.00
2022-09-10T04:28:49.855Z,6.43
2022-09-10T04:34:55.031Z,8.80
2022-09-10T04:40:58.401Z,7.82
2022-09-10T04:47:01.784Z,10.55
2022-09-10T04:53:07.880Z,8.95
2022-09-10T04:59:11.814Z,10.05
2022-09-10T05:05:15.278Z,9.70
2022-09-10T05:11:20.375Z,10.60
2022-09-10T05:17:24.111Z,9.88
2022-09-10T05:23:27.433Z,9.77
2022-09-10T05:29:32.099Z,10.27
2022-09-10T05:35:35.728Z,12.10
2022-09-10T05:41:39.074Z,11.77
2022-09-10T05:47:43.884Z,9.98
2022-09-10T05:53:47.524Z,12.35
2022-09-10T05:59:50.853Z,7.90
2022-09-10T06:05:55.721Z,11.10
2022-09-10T06:11:59.320Z,12.15
2022-09-10T06:18:02.881Z,13.63
2022-09-10T06:24:07.979Z,13.85
2022-09-10T06:30:11.706Z,12.35
2022-09-10T06:36:15.632Z,10.68
2022-09-10T06:42:20.344Z,6.88
2022-09-10T06:48:47.503Z,6.32
2022-09-10T06:54:51.561Z,11.93
2022-09-10T07:00:56.309Z,11.13
2022-09-10T07:07:00.830Z,12.20
2022-09-10T07:13:04.198Z,11.95
2022-09-10T07:19:09.630Z,8.98
2022-09-10T07:25:13.002Z,10.10
2022-09-10T07:31:17.627Z,9.95
2022-09-10T07:37:22.593Z,10.90
2022-09-10T07:43:25.961Z,9.73
2022-09-10T07:49:30.237Z,8.57
2022-09-10T07:55:35.035Z,5.78
2022-09-10T08:01:38.379Z,6.68
2022-09-10T08:07:42.536Z,6.38
2022-09-10T08:13:48.728Z,5.35
2022-09-10T08:19:52.213Z,3.88
2022-09-10T08:25:55.578Z,2.95
2022-09-10T08:32:00.659Z,2.55
2022-09-10T08:38:04.372Z,3.33
2022-09-10T08:44:09.036Z,3.08
2022-09-10T08:50:20.301Z,2.30
2022-09-10T08:56:24.715Z,3.00
2022-09-10T09:02:48.335Z,3.05
2022-09-10T09:08:54.320Z,3.70
2022-09-10T09:15:08.673Z,3.80
2022-09-10T09:21:17.524Z,3.95
2022-09-10T09:27:22.528Z,3.58
2022-09-10T09:33:27.525Z,3.50
2022-09-10T09:39:32.788Z,2.70
2022-09-10T09:45:38.996Z,2.97
2022-09-10T09:51:43.096Z,3.40
2022-09-10T09:57:47.235Z,3.70
2022-09-10T10:03:53.609Z,4.60
2022-09-10T10:09:56.962Z,4.05
2022-09-10T10:16:15.533Z,3.35
2022-09-10T10:22:27.002Z,3.45
2022-09-10T10:28:30.388Z,2.47
2022-09-10T10:34:40.796Z,2.45
2022-09-10T10:40:48.652Z,2.97
2022-09-10T10:46:56.101Z,2.58
2022-09-10T10:53:14.579Z,2.65
2022-09-10T10:59:27.698Z,2.78
2022-09-10T11:05:32.450Z,2.30
2022-09-10T11:11:38.796Z,2.90
2022-09-10T11:17:47.294Z,2.40
2022-09-10T11:23:51.888Z,2.70
2022-09-10T11:29:57.899Z,2.72
2022-09-10T11:36:07.399Z,2.72
2022-09-10T11:42:15.280Z,3.13
2022-09-10T11:48:21.824Z,3.40
2022-09-10T11:54:29.030Z,2.75
2022-09-10T12:00:35.086Z,2.70
2022-09-10T12:06:43.208Z,2.72
2022-09-10T12:12:50.360Z,2.63
2022-09-10T12:18:55.453Z,2.42
2022-09-10T12:25:02.082Z,2.75
2022-09-10T12:31:06.904Z,2.20
2022-09-10T12:37:25.160Z,2.63
2022-09-10T12:43:47.275Z,2.83
2022-09-10T12:49:53.037Z,2.55
2022-09-10T12:56:02.295Z,2.60
2022-09-10T13:02:20.517Z,2.40
2022-09-10T13:08:27.451Z,2.40
2022-09-10T13:14:33.310Z,2.95
2022-09-10T13:20:36.915Z,2.35
2022-09-10T13:26:57.863Z,2.92
2022-09-10T13:33:06.104Z,2.45
2022-09-10T13:39:26.683Z,2.50
2022-09-10T13:45:33.306Z,3.00
2022-09-10T13:51:39.979Z,3.13
2022-09-10T13:57:45.517Z,2.60
2022-09-10T14:03:48.868Z,2.70
2022-09-10T14:09:56.788Z,3.65
2022-09-10T14:16:02.086Z,3.08
2022-09-10T14:22:09.823Z,3.38
2022-09-10T14:28:20.354Z,3.20
2022-09-10T14:34:27.789Z,3.45
2022-09-10T14:40:37.445Z,2.60
2022-09-10T14:46:53.109Z,2.72
2022-09-10T14:52:56.508Z,3.00
2022-09-10T14:59:01.091Z,2.60
2022-09-10T15:05:06.110Z,2.17
2022-09-10T15:11:14.512Z,2.10
2022-09-10T15:17:19.038Z,3.25
2022-09-10T15:23:23.772Z,2.35
2022-09-10T15:29:27.214Z,2.65
2022-09-10T15:35:31.115Z,2.60
2022-09-10T15:41:36.055Z,2.50
2022-09-10T15:47:41.932Z,2.63
2022-09-10T15:53:46.312Z,2.53
2022-09-10T15:59:51.430Z,2.88
2022-09-10T16:05:55.056Z,3.10
2022-09-10T16:11:58.878Z,3.30
2022-09-10T16:18:03.617Z,2.95
2022-09-10T16:24:07.872Z,3.17
2022-09-10T16:30:12.171Z,3.25
2022-09-10T16:36:17.366Z,3.50
2022-09-10T16:42:20.719Z,3.63
2022-09-10T16:48:24.051Z,4.10
2022-09-10T16:54:31.895Z,3.50
2022-09-10T17:00:35.257Z,3.25
2022-09-10T17:06:38.646Z,2.97
2022-09-10T17:12:43.923Z,3.33
2022-09-10T17:18:47.461Z,3.58
2022-09-10T17:24:50.838Z,4.80
2022-09-10T17:30:58.204Z,3.88
2022-09-10T17:37:01.671Z,3.63
2022-09-10T17:43:05.158Z,3.42
2022-09-10T17:49:09.976Z,4.07
2022-09-10T17:55:13.791Z,3.85
2022-09-10T18:01:23.087Z,3.70
2022-09-10T18:07:28.917Z,3.92
2022-09-10T18:13:32.863Z,3.20
2022-09-10T18:19:36.660Z,4.07
2022-09-10T18:25:46.676Z,3.15
2022-09-10T18:31:53.950Z,3.25
2022-09-10T18:37:57.649Z,3.42
2022-09-10T18:44:04.135Z,3.85
2022-09-10T18:50:07.920Z,6.97
2022-09-10T18:56:12.442Z,7.57
2022-09-10T19:02:19.614Z,8.98
2022-09-10T19:08:23.099Z,8.30
2022-09-10T19:14:27.264Z,7.85
2022-09-10T19:20:31.994Z,5.35
2022-09-10T19:26:36.970Z,7.68
2022-09-10T19:32:40.427Z,8.07
2022-09-10T19:38:46.959Z,3.65
2022-09-10T19:44:50.303Z,4.88
2022-09-10T19:50:54.148Z,4.63
2022-09-10T19:56:59.303Z,4.78
2022-09-10T20:03:02.618Z,3.08
2022-09-10T20:09:06.839Z,7.35
2022-09-10T20:15:11.961Z,7.55
2022-09-10T20:21:16.519Z,4.47
2022-09-10T20:27:20.104Z,8.55
2022-09-10T20:33:25.051Z,8.07
2022-09-10T20:39:28.736Z,8.45
2022-09-10T20:45:32.668Z,5.93
2022-09-10T20:51:40.467Z,7.78
2022-09-10T20:57:43.840Z,7.57
2022-09-10T21:03:47.593Z,7.53
2022-09-10T21:09:52.520Z,7.18
2022-09-10T21:15:56.265Z,6.63
2022-09-10T21:21:59.662Z,5.50
2022-09-10T21:28:04.615Z,8.95
2022-09-10T21:34:08.095Z,8.48
2022-09-10T21:40:11.948Z,8.90
2022-09-10T21:46:16.732Z,9.60
2022-09-10T21:52:20.111Z,9.75
2022-09-10T21:58:23.804Z,9.13
2022-09-10T22:04:28.697Z,8.50
2022-09-10T22:10:32.375Z,9.45
2022-09-10T22:16:36.305Z,9.82
2022-09-10T22:22:40.995Z,10.20
2022-09-10T22:28:44.767Z,9.00
2022-09-10T22:34:49.199Z,9.60
2022-09-10T22:40:54.119Z,9.23
2022-09-10T22:46:57.703Z,9.10
2022-09-10T22:53:01.450Z,9.98
2022-09-10T22:59:06.547Z,10.13
2022-09-10T23:05:10.112Z,10.02
2022-09-10T23:11:15.237Z,9.93
2022-09-10T23:17:22.529Z,10.68
2022-09-10T23:23:26.095Z,11.43
2022-09-10T23:29:29.456Z,10.88
2022-09-10T23:35:34.301Z,11.93
2022-09-10T23:41:39.280Z,12.07
2022-09-10T23:47:42.599Z,11.68
2022-09-10T23:53:48.069Z,12.25
2022-09-10T23:59:51.430Z,13.57
